Time;durP1;ratioP1;P1;durP2;ratioP2;P2;SDS_P1;SDS_P2;PMS_P1;PMS_P2;Temp;Humidity;BMP_temperature;BMP_pressure;BME280_temperature;BME280_humidity;BME280_pressure;Samples;Min_cycle;Max_cycle;Signal;HPM_P1;HPM_P2
2021/08/08 00:01:13;;;;;;;15.60;6.88;;;;;;;;;;5078723;28;38359;-80
2021/08/08 00:06:16;;;;;;;13.90;6.55;;;;;;;;;;5245642;22;20035;-80
2021/08/08 00:08:43;;;;;;;22.52;8.05;;;;;;;;;;5059439;28;38210;-81
2021/08/08 01:26:17;;;;;;;22.75;7.65;;;;;;;;;;5924433;22;20036;-82
2021/08/08 01:28:44;;;;;;;22.48;7.55;;;;;;;;;;5053454;28;37775;-81
2021/08/08 01:31:10;;;;;;;21.88;6.57;;;;;;;;;;5070242;28;38783;-81
2021/08/08 01:33:37;;;;;;;17.38;5.78;;;;;;;;;;5050496;28;36456;-81
2021/08/08 01:36:04;;;;;;;19.77;6.95;;;;;;;;;;5039163;28;37909;-81
2021/08/08 01:38:33;;;;;;;23.17;7.35;;;;;;;;;;5043154;28;39081;-80
2021/08/08 01:41:02;;;;;;;17.27;5.60;;;;;;;;;;5043751;28;38320;-81
2021/08/08 01:43:42;;;;;;;20.52;6.55;;;;;;;;;;5031558;28;47433;-81
2021/08/08 01:46:11;;;;;;;15.60;6.40;;;;;;;;;;5050152;28;40102;-82
2021/08/08 01:48:45;;;;;;;17.20;5.80;;;;;;;;;;5056883;28;39668;-81
2021/08/08 01:51:12;;;;;;;20.00;6.13;;;;;;;;;;5052090;28;38669;-80
2021/08/08 01:53:40;;;;;;;18.58;6.13;;;;;;;;;;5041364;28;37801;-80
2021/08/08 01:56:08;;;;;;;16.17;5.70;;;;;;;;;;5043276;28;39505;-81
2021/08/08 01:58:36;;;;;;;16.33;5.88;;;;;;;;;;5042980;28;39375;-81
2021/08/08 02:01:02;;;;;;;13.10;6.10;;;;;;;;;;5043142;28;36939;-78
2021/08/08 02:03:35;;;;;;;16.77;6.93;;;;;;;;;;5042730;28;35663;-81
2021/08/08 02:06:03;;;;;;;17.30;6.25;;;;;;;;;;5041757;28;38360;-77
2021/08/08 02:08:29;;;;;;;19.73;7.57;;;;;;;;;;5049224;28;38694;-81
2021/08/08 02:10:55;;;;;;;21.73;7.90;;;;;;;;;;5061365;28;40108;-81
2021/08/08 02:13:22;;;;;;;27.38;7.45;;;;;;;;;;5045187;28;35920;-80
2021/08/08 02:15:48;;;;;;;28.25;7.70;;;;;;;;;;5059637;28;38925;-81
2021/08/08 02:18:16;;;;;;;20.42;7.32;;;;;;;;;;5058318;28;38439;-81
2021/08/08 02:20:42;;;;;;;25.83;8.73;;;;;;;;;;5040120;28;40126;-81
2021/08/08 02:23:09;;;;;;;24.95;7.22;;;;;;;;;;5057106;28;36964;-81
2021/08/08 02:25:37;;;;;;;22.23;7.05;;;;;;;;;;5056604;28;40228;-81
2021/08/08 02:28:05;;;;;;;35.05;9.27;;;;;;;;;;5056344;28;39738;-80
2021/08/08 02:30:32;;;;;;;26.38;7.78;;;;;;;;;;5039823;28;37046;-81
2021/08/08 02:32:58;;;;;;;21.83;6.97;;;;;;;;;;5039632;28;37272;-81
2021/08/08 02:35:24;;;;;;;21.25;7.70;;;;;;;;;;5054153;28;38825;-81
2021/08/08 02:37:51;;;;;;;34.10;9.18;;;;;;;;;;5054415;28;38443;-81
2021/08/08 02:40:18;;;;;;;26.20;8.55;;;;;;;;;;5040704;28;38393;-81
2021/08/08 02:42:51;;;;;;;31.13;8.30;;;;;;;;;;5040631;28;38040;-81
2021/08/08 02:45:18;;;;;;;;;;;;;;;;;;5058584;28;39014;-81
2021/08/08 02:47:45;;;;;;;24.05;6.82;;;;;;;;;;5041612;28;37966;-81
2021/08/08 02:50:12;;;;;;;22.00;7.13;;;;;;;;;;5038923;28;38453;-81
2021/08/08 02:52:41;;;;;;;26.20;7.07;;;;;;;;;;5039787;28;35834;-81
2021/08/08 02:55:09;;;;;;;20.80;6.53;;;;;;;;;;5037300;28;38148;-81
2021/08/08 02:57:35;;;;;;;21.02;7.13;;;;;;;;;;5039310;28;37437;-81
2021/08/08 03:00:06;;;;;;;26.00;7.03;;;;;;;;;;5057663;28;37909;-80
2021/08/08 03:02:34;;;;;;;26.77;7.03;;;;;;;;;;5037227;28;46857;-81
2021/08/08 03:05:00;;;;;;;24.27;8.23;;;;;;;;;;5055552;28;39187;-80
2021/08/08 03:07:27;;;;;;;28.15;9.20;;;;;;;;;;5056318;28;39858;-80
2021/08/08 03:09:53;;;;;;;26.90;7.65;;;;;;;;;;5021028;28;37161;-80
2021/08/08 03:12:20;;;;;;;27.48;8.70;;;;;;;;;;5032672;28;36950;-80
2021/08/08 03:14:46;;;;;;;28.45;8.82;;;;;;;;;;5036827;28;37898;-81
2021/08/08 03:57:02;;;;;;;;;;;;;;;;;;5572270;23;20034;-79
2021/08/08 03:59:36;;;;;;;31.10;8.93;;;;;;;;;;5036390;28;39076;-81
2021/08/08 04:02:13;;;;;;;33.33;8.68;;;;;;;;;;5051293;28;39613;-79
2021/08/08 04:04:43;;;;;;;26.17;8.30;;;;;;;;;;5037125;28;37530;-81
2021/08/08 04:12:22;;;;;;;29.52;8.90;;;;;;;;;;5787826;22;20057;-83
2021/08/08 04:14:48;;;;;;;32.88;8.88;;;;;;;;;;5049371;28;37497;-81
2021/08/08 04:17:17;;;;;;;35.50;8.57;;;;;;;;;;5050799;28;37033;-80
2021/08/08 04:19:47;;;;;;;31.58;8.85;;;;;;;;;;5053933;28;38983;-80
2021/08/08 05:35:37;;;;;;;31.30;7.07;;;;;;;;;;5016914;28;50386;-82
2021/08/08 05:38:09;;;;;;;24.08;6.05;;;;;;;;;;5047719;28;38940;-83
2021/08/08 05:40:35;;;;;;;29.48;5.93;;;;;;;;;;5047965;28;37071;-82
2021/08/08 05:43:03;;;;;;;31.50;7.20;;;;;;;;;;5045618;28;36176;-82
2021/08/08 05:45:30;;;;;;;26.33;5.30;;;;;;;;;;5043830;28;38998;-82
2021/08/08 05:47:57;;;;;;;26.67;6.18;;;;;;;;;;5043831;28;37511;-83
2021/08/08 05:50:24;;;;;;;21.17;5.68;;;;;;;;;;5038347;28;40835;-82
2021/08/08 05:52:52;;;;;;;22.40;5.68;;;;;;;;;;5043509;28;38679;-83
2021/08/08 05:55:19;;;;;;;30.23;5.28;;;;;;;;;;5038864;28;40581;-81
2021/08/08 05:57:45;;;;;;;23.08;4.78;;;;;;;;;;5039923;28;38033;-82
2021/08/08 06:00:12;;;;;;;24.42;5.45;;;;;;;;;;5037070;28;38162;-82
2021/08/08 06:02:38;;;;;;;30.33;5.60;;;;;;;;;;5036406;28;38706;-82
2021/08/08 06:05:06;;;;;;;25.85;5.38;;;;;;;;;;5036350;28;38583;-80
2021/08/08 06:07:33;;;;;;;30.60;5.85;;;;;;;;;;5036332;28;37547;-82
2021/08/08 06:10:01;;;;;;;26.13;5.07;;;;;;;;;;5037758;28;38782;-82
2021/08/08 06:12:28;;;;;;;21.20;4.65;;;;;;;;;;5034430;28;37791;-82
2021/08/08 06:14:54;;;;;;;24.67;5.80;;;;;;;;;;5036017;28;39277;-82
2021/08/08 06:17:22;;;;;;;29.15;5.97;;;;;;;;;;5036335;28;38158;-82
2021/08/08 06:19:49;;;;;;;22.52;5.50;;;;;;;;;;5034026;28;38430;-81
2021/08/08 06:22:15;;;;;;;26.90;5.20;;;;;;;;;;5031511;28;37719;-82
2021/08/08 06:24:41;;;;;;;25.50;5.65;;;;;;;;;;5032698;28;37654;-82
2021/08/08 06:27:08;;;;;;;24.42;6.05;;;;;;;;;;5027591;28;37768;-82
2021/08/08 06:29:37;;;;;;;21.70;5.25;;;;;;;;;;5015913;28;38432;-82
2021/08/08 06:32:04;;;;;;;25.33;5.30;;;;;;;;;;5012404;28;36231;-79
2021/08/08 06:34:30;;;;;;;23.95;4.97;;;;;;;;;;5025691;28;39833;-80
2021/08/08 06:36:56;;;;;;;21.67;5.38;;;;;;;;;;5033486;28;39005;-80
2021/08/08 06:39:23;;;;;;;22.45;5.05;;;;;;;;;;5032081;28;38712;-79
2021/08/08 06:41:49;;;;;;;20.30;4.50;;;;;;;;;;5023314;28;37517;-79
2021/08/08 06:44:16;;;;;;;23.63;4.30;;;;;;;;;;5010329;28;39300;-81
2021/08/08 06:46:42;;;;;;;23.77;4.88;;;;;;;;;;5010779;28;37786;-81
2021/08/08 06:49:08;;;;;;;25.55;4.90;;;;;;;;;;5012332;28;38343;-81
2021/08/08 06:51:34;;;;;;;28.48;4.47;;;;;;;;;;5011624;28;36823;-81
2021/08/08 06:54:01;;;;;;;24.08;4.80;;;;;;;;;;5012015;28;38974;-81
2021/08/08 06:56:29;;;;;;;21.45;5.00;;;;;;;;;;5010126;28;48924;-81
2021/08/08 06:58:55;;;;;;;18.40;4.72;;;;;;;;;;5018949;28;38847;-81
2021/08/08 07:01:22;;;;;;;21.02;5.72;;;;;;;;;;5029348;28;37532;-80
2021/08/08 07:03:48;;;;;;;23.33;5.35;;;;;;;;;;5029547;28;38905;-80
2021/08/08 07:06:14;;;;;;;19.23;5.15;;;;;;;;;;5029618;28;38727;-80
2021/08/08 07:08:41;;;;;;;21.48;6.07;;;;;;;;;;5028008;28;37642;-78
2021/08/08 07:11:07;;;;;;;21.73;6.68;;;;;;;;;;5028597;28;37335;-79
2021/08/08 07:13:33;;;;;;;24.05;5.47;;;;;;;;;;5029750;28;39079;-78
2021/08/08 07:16:00;;;;;;;16.40;4.70;;;;;;;;;;5026214;28;40160;-79
2021/08/08 07:18:26;;;;;;;15.27;4.85;;;;;;;;;;5028260;28;37759;-78
2021/08/08 07:20:52;;;;;;;17.20;5.75;;;;;;;;;;5028554;28;36817;-78
2021/08/08 07:23:19;;;;;;;25.48;6.22;;;;;;;;;;5027113;28;39184;-78
2021/08/08 07:25:45;;;;;;;21.83;5.85;;;;;;;;;;5027841;28;38280;-78
2021/08/08 07:28:11;;;;;;;23.83;5.78;;;;;;;;;;5028662;28;38447;-78
2021/08/08 07:30:38;;;;;;;20.73;5.35;;;;;;;;;;5026865;28;35812;-79
2021/08/08 07:33:04;;;;;;;19.90;5.97;;;;;;;;;;5028612;28;39768;-78
2021/08/08 07:35:30;;;;;;;21.67;5.43;;;;;;;;;;5029325;28;39286;-78
2021/08/08 07:37:57;;;;;;;17.52;4.88;;;;;;;;;;5029011;28;38523;-78
2021/08/08 07:40:23;;;;;;;17.45;5.20;;;;;;;;;;5026112;28;37056;-78
2021/08/08 07:42:50;;;;;;;15.68;4.72;;;;;;;;;;5026785;28;38071;-78
2021/08/08 07:45:17;;;;;;;23.25;4.78;;;;;;;;;;5027800;28;38432;-78
2021/08/08 07:47:43;;;;;;;16.58;4.57;;;;;;;;;;5027656;28;39021;-79
2021/08/08 07:50:10;;;;;;;16.90;4.78;;;;;;;;;;5028016;28;37110;-78
2021/08/08 07:52:37;;;;;;;13.68;4.03;;;;;;;;;;5028790;28;39071;-78
2021/08/08 07:55:07;;;;;;;16.83;4.28;;;;;;;;;;5029424;28;38511;-78
2021/08/08 07:57:34;;;;;;;16.45;4.45;;;;;;;;;;5027283;28;48980;-78
2021/08/08 08:00:00;;;;;;;19.95;4.15;;;;;;;;;;5029980;28;36781;-79
2021/08/08 08:02:27;;;;;;;18.08;3.97;;;;;;;;;;5025496;28;39451;-79
2021/08/08 08:04:53;;;;;;;20.30;4.50;;;;;;;;;;5028034;28;38194;-80
2021/08/08 08:07:19;;;;;;;15.60;3.70;;;;;;;;;;5028267;28;38459;-79
2021/08/08 08:09:46;;;;;;;17.60;4.43;;;;;;;;;;5028658;28;36875;-78
2021/08/08 08:12:12;;;;;;;25.67;4.40;;;;;;;;;;5026254;28;39054;-78
2021/08/08 08:14:38;;;;;;;18.13;3.97;;;;;;;;;;5027454;28;40251;-78
2021/08/08 08:17:05;;;;;;;19.00;4.38;;;;;;;;;;5027232;28;38320;-78
2021/08/08 08:19:31;;;;;;;22.60;3.42;;;;;;;;;;5027542;28;37203;-80
2021/08/08 08:21:58;;;;;;;15.77;3.72;;;;;;;;;;5027461;28;39074;-79
2021/08/08 08:24:24;;;;;;;12.40;3.60;;;;;;;;;;5025013;28;38901;-78
2021/08/08 08:26:50;;;;;;;12.23;3.42;;;;;;;;;;5025099;28;39014;-79
2021/08/08 08:29:20;;;;;;;12.93;3.60;;;;;;;;;;5025485;28;37123;-79
2021/08/08 08:31:46;;;;;;;18.60;3.60;;;;;;;;;;5025700;28;39839;-78
2021/08/08 08:34:13;;;;;;;16.33;3.80;;;;;;;;;;5026864;28;38229;-78
2021/08/08 08:36:39;;;;;;;15.73;3.90;;;;;;;;;;5027840;28;37919;-78
2021/08/08 08:39:06;;;;;;;19.38;3.75;;;;;;;;;;5030560;28;37174;-78
2021/08/08 08:41:33;;;;;;;16.27;3.58;;;;;;;;;;5030461;28;39850;-79
2021/08/08 08:43:59;;;;;;;17.42;4.15;;;;;;;;;;5030981;28;38531;-78
2021/08/08 08:46:27;;;;;;;13.00;3.28;;;;;;;;;;5027900;28;39323;-78
2021/08/08 08:48:54;;;;;;;12.93;3.40;;;;;;;;;;5029743;28;37080;-79
2021/08/08 08:51:36;;;;;;;16.98;3.38;;;;;;;;;;5031145;28;39156;-79
2021/08/08 08:54:03;;;;;;;18.77;3.28;;;;;;;;;;5031784;28;38351;-77
2021/08/08 08:56:30;;;;;;;15.00;3.45;;;;;;;;;;5031548;28;38321;-78
2021/08/08 08:58:57;;;;;;;16.55;3.42;;;;;;;;;;5015828;28;37512;-78
2021/08/08 09:01:23;;;;;;;14.50;3.28;;;;;;;;;;5029795;28;38723;-78
2021/08/08 09:03:50;;;;;;;15.52;3.30;;;;;;;;;;5030456;28;39627;-78
2021/08/08 09:06:16;;;;;;;11.82;3.10;;;;;;;;;;5029088;28;39117;-79
2021/08/08 09:08:43;;;;;;;14.90;2.90;;;;;;;;;;5030044;28;38187;-79
2021/08/08 09:11:10;;;;;;;17.58;3.67;;;;;;;;;;5030170;28;39860;-78
2021/08/08 09:13:53;;;;;;;9.80;2.70;;;;;;;;;;5029737;28;39144;-78
2021/08/08 09:16:21;;;;;;;9.95;3.10;;;;;;;;;;5028378;28;38372;-78
2021/08/08 09:18:49;;;;;;;8.65;2.63;;;;;;;;;;5027046;28;37752;-78
2021/08/08 09:21:15;;;;;;;14.25;3.53;;;;;;;;;;5025011;28;40472;-78
2021/08/08 09:23:41;;;;;;;10.98;2.90;;;;;;;;;;5027853;28;38956;-78
2021/08/08 09:26:08;;;;;;;10.32;2.90;;;;;;;;;;5027002;28;38547;-79
2021/08/08 09:28:34;;;;;;;24.02;4.43;;;;;;;;;;5029800;28;36949;-78
2021/08/08 09:31:01;;;;;;;16.73;3.28;;;;;;;;;;5029027;28;38831;-78
2021/08/08 09:33:27;;;;;;;8.57;2.65;;;;;;;;;;5029920;28;48864;-78
2021/08/08 09:35:54;;;;;;;11.10;2.67;;;;;;;;;;5026813;28;38145;-78
2021/08/08 09:38:21;;;;;;;14.57;2.85;;;;;;;;;;5029386;28;36789;-78
2021/08/08 09:40:59;;;;;;;12.18;2.70;;;;;;;;;;5013596;28;39922;-77
2021/08/08 09:43:26;;;;;;;13.25;3.50;;;;;;;;;;5025963;28;39335;-78
2021/08/08 09:45:53;;;;;;;13.82;3.42;;;;;;;;;;5020527;28;38591;-79
2021/08/08 09:48:19;;;;;;;14.90;2.95;;;;;;;;;;5019859;28;37432;-78
2021/08/08 09:50:46;;;;;;;12.82;3.35;;;;;;;;;;5030010;28;40637;-79
2021/08/08 09:53:19;;;;;;;12.20;2.90;;;;;;;;;;5028054;28;38947;-78
2021/08/08 09:55:46;;;;;;;13.27;2.58;;;;;;;;;;5030304;28;38377;-78
2021/08/08 09:58:20;;;;;;;9.35;2.55;;;;;;;;;;5029679;28;37292;-79
2021/08/08 10:00:46;;;;;;;8.32;2.55;;;;;;;;;;5028506;28;39345;-78
2021/08/08 10:03:14;;;;;;;14.25;2.90;;;;;;;;;;5030987;28;38098;-78
2021/08/08 10:05:42;;;;;;;12.93;2.90;;;;;;;;;;5028902;28;38203;-78
2021/08/08 10:08:08;;;;;;;8.50;2.75;;;;;;;;;;5029289;28;37195;-79
2021/08/08 10:10:36;;;;;;;7.80;2.50;;;;;;;;;;5028369;28;39642;-78
2021/08/08 10:13:08;;;;;;;11.15;2.75;;;;;;;;;;5030837;28;39338;-78
2021/08/08 10:15:45;;;;;;;11.48;2.72;;;;;;;;;;5027242;28;48217;-79
2021/08/08 10:18:13;;;;;;;10.98;2.63;;;;;;;;;;5029079;28;36922;-79
2021/08/08 10:20:40;;;;;;;9.77;2.53;;;;;;;;;;5028411;28;37797;-78
2021/08/08 10:23:07;;;;;;;10.02;2.40;;;;;;;;;;5029062;28;38295;-79
2021/08/08 10:25:34;;;;;;;11.35;2.53;;;;;;;;;;5027047;28;38798;-78
2021/08/08 10:28:01;;;;;;;11.43;2.90;;;;;;;;;;5029923;28;36666;-78
2021/08/08 10:30:27;;;;;;;7.43;2.13;;;;;;;;;;5028127;28;47020;-78
2021/08/08 10:32:54;;;;;;;7.32;2.10;;;;;;;;;;5028537;28;39201;-78
2021/08/08 10:35:21;;;;;;;7.53;2.55;;;;;;;;;;5028015;28;39069;-78
2021/08/08 10:38:00;;;;;;;12.80;2.70;;;;;;;;;;5028466;28;36389;-78
2021/08/08 10:40:31;;;;;;;8.90;2.83;;;;;;;;;;5027567;28;38957;-78
2021/08/08 10:42:57;;;;;;;7.68;2.40;;;;;;;;;;5030361;28;38713;-79
2021/08/08 10:45:25;;;;;;;8.45;2.53;;;;;;;;;;5027877;28;39314;-79
2021/08/08 10:48:10;;;;;;;7.93;2.30;;;;;;;;;;5026570;28;36878;-79
2021/08/08 10:50:40;;;;;;;7.50;2.03;;;;;;;;;;5028402;28;48613;-77
2021/08/08 10:53:07;;;;;;;7.65;2.65;;;;;;;;;;5026684;28;38556;-80
2021/08/08 10:55:35;;;;;;;10.05;2.53;;;;;;;;;;5029201;28;37038;-78
2021/08/08 10:58:11;;;;;;;11.05;2.88;;;;;;;;;;5029725;28;37766;-77
2021/08/08 11:00:37;;;;;;;8.60;2.45;;;;;;;;;;5028564;28;40002;-79
2021/08/08 11:03:12;;;;;;;15.55;3.05;;;;;;;;;;5032479;28;38471;-78
2021/08/08 11:05:38;;;;;;;14.55;2.28;;;;;;;;;;5030907;28;38255;-79
2021/08/08 11:08:06;;;;;;;9.13;2.05;;;;;;;;;;5028359;28;37083;-78
2021/08/08 11:10:35;;;;;;;6.55;2.20;;;;;;;;;;5044823;28;40145;-79
2021/08/08 11:13:02;;;;;;;12.35;3.00;;;;;;;;;;5031113;28;39534;-78
2021/08/08 11:15:35;;;;;;;10.77;2.80;;;;;;;;;;5028593;28;38271;-78
2021/08/08 11:18:01;;;;;;;11.20;2.70;;;;;;;;;;5027975;28;38143;-78
2021/08/08 11:20:28;;;;;;;8.65;2.17;;;;;;;;;;5009385;28;47026;-78
2021/08/08 11:23:02;;;;;;;7.28;2.50;;;;;;;;;;5028877;28;39513;-79
2021/08/08 11:25:35;;;;;;;7.75;2.15;;;;;;;;;;5025686;28;47335;-78
2021/08/08 11:28:01;;;;;;;6.43;2.20;;;;;;;;;;5026421;28;37259;-78
2021/08/08 11:30:37;;;;;;;5.38;1.45;;;;;;;;;;5008382;28;47479;-78
2021/08/08 11:33:03;;;;;;;5.20;1.65;;;;;;;;;;5027215;28;40101;-77
2021/08/08 11:35:29;;;;;;;7.90;1.83;;;;;;;;;;5025647;28;38823;-78
2021/08/08 11:37:56;;;;;;;7.50;2.03;;;;;;;;;;5027600;28;38661;-78
2021/08/08 11:40:23;;;;;;;6.78;1.90;;;;;;;;;;5027374;28;38051;-78
2021/08/08 11:43:03;;;;;;;6.55;1.70;;;;;;;;;;5027846;28;39092;-77
2021/08/08 11:45:33;;;;;;;7.07;1.85;;;;;;;;;;5025979;28;47204;-78
2021/08/08 11:48:00;;;;;;;6.85;1.45;;;;;;;;;;5028443;28;36988;-77
2021/08/08 11:50:28;;;;;;;4.72;1.90;;;;;;;;;;5025733;28;38815;-77
2021/08/08 11:52:59;;;;;;;7.72;2.00;;;;;;;;;;5027345;28;38999;-78
2021/08/08 11:55:26;;;;;;;3.03;1.27;;;;;;;;;;5027946;28;37524;-79
2021/08/08 11:58:03;;;;;;;7.90;2.03;;;;;;;;;;5028804;28;36611;-78
2021/08/08 12:00:30;;;;;;;11.20;2.65;;;;;;;;;;5027757;28;49221;-77
2021/08/08 12:02:56;;;;;;;7.60;2.50;;;;;;;;;;5027712;28;39433;-77
2021/08/08 12:05:24;;;;;;;7.22;2.10;;;;;;;;;;5027526;28;38101;-77
2021/08/08 12:07:51;;;;;;;10.35;2.60;;;;;;;;;;5028955;28;36836;-77
2021/08/08 12:10:31;;;;;;;8.10;2.00;;;;;;;;;;5025798;28;39617;-78
2021/08/08 12:12:57;;;;;;;6.35;2.08;;;;;;;;;;5029291;28;38428;-78
2021/08/08 12:15:31;;;;;;;8.18;2.10;;;;;;;;;;5028152;28;38567;-78
2021/08/08 12:17:58;;;;;;;7.97;2.20;;;;;;;;;;5029064;28;36818;-78
2021/08/08 12:20:31;;;;;;;9.07;2.25;;;;;;;;;;5029136;28;39279;-78
2021/08/08 12:23:04;;;;;;;8.05;1.92;;;;;;;;;;5013163;28;40012;-77
2021/08/08 12:25:31;;;;;;;7.50;2.00;;;;;;;;;;5025703;28;48769;-78
2021/08/08 12:27:57;;;;;;;8.57;1.92;;;;;;;;;;5028830;28;36952;-78
2021/08/08 12:30:27;;;;;;;9.88;2.60;;;;;;;;;;5029101;28;38412;-78
2021/08/08 12:33:02;;;;;;;7.72;1.65;;;;;;;;;;5029186;28;39180;-78
2021/08/08 12:35:33;;;;;;;6.05;1.70;;;;;;;;;;5027008;28;48509;-79
2021/08/08 12:38:05;;;;;;;7.30;1.98;;;;;;;;;;5028545;28;36840;-78
2021/08/08 12:40:40;;;;;;;12.47;2.20;;;;;;;;;;5027332;28;48807;-78
2021/08/08 12:43:08;;;;;;;5.60;1.67;;;;;;;;;;5026421;28;39573;-79
2021/08/08 12:45:39;;;;;;;7.97;1.75;;;;;;;;;;5027073;28;38457;-78
2021/08/08 12:48:05;;;;;;;4.93;1.45;;;;;;;;;;5026560;28;37680;-78
2021/08/08 12:50:38;;;;;;;8.25;1.77;;;;;;;;;;5025927;28;39728;-78
2021/08/08 12:53:06;;;;;;;;;;;;;;;;;;5025073;28;39198;-76
2021/08/08 12:55:33;;;;;;;7.93;2.17;;;;;;;;;;5026054;28;39716;-77
2021/08/08 12:57:59;;;;;;;7.63;1.58;;;;;;;;;;5025647;28;37163;-78
2021/08/08 13:00:25;;;;;;;7.65;1.83;;;;;;;;;;5024231;28;39345;-77
2021/08/08 13:02:52;;;;;;;10.65;2.20;;;;;;;;;;5028286;28;38560;-78
2021/08/08 13:05:19;;;;;;;10.80;2.22;;;;;;;;;;5024236;28;39017;-78
2021/08/08 13:07:46;;;;;;;4.32;1.52;;;;;;;;;;5027817;28;36664;-78
2021/08/08 13:10:13;;;;;;;7.30;1.58;;;;;;;;;;5026766;28;39893;-79
2021/08/08 13:12:43;;;;;;;5.80;1.58;;;;;;;;;;5026163;28;39253;-78
2021/08/08 13:15:10;;;;;;;3.05;1.48;;;;;;;;;;5023825;28;39724;-78
2021/08/08 13:17:37;;;;;;;6.63;2.00;;;;;;;;;;5025960;28;38630;-78
2021/08/08 13:20:05;;;;;;;4.32;1.70;;;;;;;;;;5028640;28;39606;-78
2021/08/08 13:22:31;;;;;;;5.35;1.42;;;;;;;;;;5027474;28;49242;-77
2021/08/08 13:24:58;;;;;;;8.40;2.50;;;;;;;;;;5030315;28;38862;-80
2021/08/08 13:27:24;;;;;;;7.22;2.47;;;;;;;;;;5029875;28;37880;-78
2021/08/08 13:29:50;;;;;;;6.90;2.03;;;;;;;;;;5029892;28;39838;-78
2021/08/08 13:32:17;;;;;;;9.75;2.92;;;;;;;;;;5027721;28;38407;-78
2021/08/08 13:34:43;;;;;;;9.23;2.50;;;;;;;;;;5028366;28;38440;-77
2021/08/08 13:37:13;;;;;;;11.23;2.60;;;;;;;;;;5028828;28;37976;-78
2021/08/08 13:39:39;;;;;;;12.07;2.80;;;;;;;;;;5031239;28;39758;-78
2021/08/08 13:42:06;;;;;;;7.68;2.25;;;;;;;;;;5026337;28;39140;-77
2021/08/08 13:44:32;;;;;;;7.85;2.03;;;;;;;;;;5037892;28;38104;-78
2021/08/08 13:46:59;;;;;;;13.48;3.25;;;;;;;;;;5036736;28;36683;-79
2021/08/08 13:49:27;;;;;;;10.05;2.85;;;;;;;;;;5036291;28;40333;-79
2021/08/08 13:51:54;;;;;;;9.65;2.53;;;;;;;;;;5036983;28;38639;-78
2021/08/08 13:54:22;;;;;;;7.20;2.55;;;;;;;;;;5035791;28;38904;-79
2021/08/08 13:56:49;;;;;;;9.90;2.80;;;;;;;;;;5045032;28;37001;-80
2021/08/08 13:59:15;;;;;;;6.75;1.50;;;;;;;;;;5051428;28;37734;-80
2021/08/08 14:01:41;;;;;;;4.65;1.60;;;;;;;;;;5054362;28;40057;-79
2021/08/08 14:04:08;;;;;;;5.60;1.73;;;;;;;;;;5050035;28;37132;-80
2021/08/08 14:06:34;;;;;;;4.80;1.58;;;;;;;;;;5047828;28;35784;-80
2021/08/08 14:09:00;;;;;;;5.22;1.80;;;;;;;;;;5049376;28;39922;-79
2021/08/08 14:11:27;;;;;;;11.40;2.65;;;;;;;;;;5047157;28;39584;-79
2021/08/08 14:13:53;;;;;;;8.35;2.20;;;;;;;;;;5047788;28;38344;-81
2021/08/08 14:16:19;;;;;;;11.43;2.55;;;;;;;;;;5043584;28;35861;-80
2021/08/08 14:18:46;;;;;;;8.98;3.50;;;;;;;;;;5045480;28;39063;-79
2021/08/08 14:21:12;;;;;;;9.13;2.65;;;;;;;;;;5044987;28;40118;-80
2021/08/08 14:23:40;;;;;;;15.80;4.20;;;;;;;;;;5049280;28;37882;-81
2021/08/08 14:26:06;;;;;;;12.25;3.25;;;;;;;;;;5054724;28;37705;-81
2021/08/08 14:28:39;;;;;;;12.50;3.42;;;;;;;;;;5051817;28;38888;-80
2021/08/08 14:31:05;;;;;;;14.25;3.53;;;;;;;;;;5055686;28;38650;-79
2021/08/08 14:46:55;;;;;;;8.00;2.65;;;;;;;;;;5463925;22;20074;-83
2021/08/08 14:49:22;;;;;;;8.20;2.20;;;;;;;;;;5064428;28;39813;-80
2021/08/08 14:51:48;;;;;;;6.90;1.90;;;;;;;;;;5058437;28;39747;-80
2021/08/08 14:54:14;;;;;;;6.68;1.75;;;;;;;;;;5059626;28;38416;-80
2021/08/08 14:56:41;;;;;;;8.45;2.85;;;;;;;;;;5077933;28;37952;-80
2021/08/08 14:59:08;;;;;;;5.53;2.17;;;;;;;;;;5082994;28;38965;-80
2021/08/08 15:01:34;;;;;;;9.63;2.45;;;;;;;;;;5061175;28;37480;-81
2021/08/08 15:04:02;;;;;;;10.30;2.75;;;;;;;;;;5061263;28;38557;-80
2021/08/08 15:06:28;;;;;;;9.77;3.17;;;;;;;;;;5076649;28;50097;-80
2021/08/08 15:08:54;;;;;;;8.80;2.75;;;;;;;;;;5070051;28;40215;-80
2021/08/08 15:11:21;;;;;;;9.95;3.03;;;;;;;;;;5053693;28;37068;-80
2021/08/08 15:13:47;;;;;;;10.15;3.40;;;;;;;;;;5055308;28;37906;-81
2021/08/08 15:16:13;;;;;;;12.48;3.35;;;;;;;;;;5056909;28;37801;-81
2021/08/08 15:18:40;;;;;;;14.55;3.45;;;;;;;;;;5055724;28;37435;-80
2021/08/08 15:21:06;;;;;;;13.35;3.20;;;;;;;;;;5053215;28;38791;-80
2021/08/08 15:23:32;;;;;;;10.88;2.75;;;;;;;;;;5054243;28;39764;-80
2021/08/08 15:25:59;;;;;;;14.95;3.22;;;;;;;;;;5052776;28;36216;-79
2021/08/08 15:28:25;;;;;;;11.05;3.10;;;;;;;;;;5054767;28;40201;-81
2021/08/08 15:30:52;;;;;;;13.65;3.35;;;;;;;;;;5054038;28;38229;-80
2021/08/08 15:33:18;;;;;;;12.02;3.08;;;;;;;;;;5053678;28;38209;-80
2021/08/08 15:35:44;;;;;;;13.13;2.72;;;;;;;;;;5034190;28;37915;-80
2021/08/08 15:38:11;;;;;;;17.65;3.67;;;;;;;;;;5034271;28;37834;-80
2021/08/08 15:40:38;;;;;;;23.10;3.85;;;;;;;;;;5035395;28;39157;-80
2021/08/08 15:43:04;;;;;;;16.75;3.05;;;;;;;;;;5046493;28;38618;-80
2021/08/08 15:45:31;;;;;;;15.10;3.22;;;;;;;;;;5055056;28;37728;-80
2021/08/08 15:47:57;;;;;;;12.60;3.15;;;;;;;;;;5054499;28;40573;-79
2021/08/08 15:50:23;;;;;;;11.25;3.20;;;;;;;;;;5051804;28;38498;-80
2021/08/08 15:52:50;;;;;;;13.30;2.85;;;;;;;;;;5055115;28;36683;-80
2021/08/08 15:55:16;;;;;;;15.70;3.25;;;;;;;;;;5053125;28;37242;-80
2021/08/08 15:57:43;;;;;;;15.05;3.45;;;;;;;;;;5073535;28;39663;-80
2021/08/08 16:00:09;;;;;;;8.55;2.30;;;;;;;;;;5071603;28;38591;-79
2021/08/08 16:02:36;;;;;;;11.68;2.92;;;;;;;;;;5053370;28;38955;-79
2021/08/08 16:05:02;;;;;;;11.75;2.92;;;;;;;;;;5053855;28;37377;-79
2021/08/08 16:07:28;;;;;;;11.90;2.72;;;;;;;;;;5069916;28;47793;-79
2021/08/08 16:09:55;;;;;;;13.88;2.90;;;;;;;;;;5037100;28;38535;-78
2021/08/08 16:12:21;;;;;;;6.38;1.33;;;;;;;;;;5048736;28;38955;-79
2021/08/08 16:14:47;;;;;;;8.75;1.48;;;;;;;;;;5051316;28;38432;-79
2021/08/08 16:17:14;;;;;;;5.82;1.20;;;;;;;;;;5050115;28;38938;-78
2021/08/08 16:19:40;;;;;;;2.72;1.00;;;;;;;;;;5038960;28;38821;-80
2021/08/08 16:22:08;;;;;;;5.38;1.58;;;;;;;;;;5068809;28;37701;-78
2021/08/08 16:24:35;;;;;;;4.03;0.95;;;;;;;;;;5035462;28;35886;-79
2021/08/08 16:27:02;;;;;;;5.10;1.10;;;;;;;;;;5030389;28;39807;-77
2021/08/08 16:29:28;;;;;;;7.15;1.33;;;;;;;;;;5032650;28;39350;-78
2021/08/08 16:31:54;;;;;;;5.95;1.20;;;;;;;;;;5031463;28;38561;-78
2021/08/08 16:34:21;;;;;;;7.70;1.38;;;;;;;;;;5030339;28;37307;-78
2021/08/08 16:36:47;;;;;;;5.57;1.70;;;;;;;;;;5031046;28;37853;-79
2021/08/08 16:39:14;;;;;;;6.18;1.63;;;;;;;;;;5044411;28;39721;-79
2021/08/08 16:41:46;;;;;;;8.23;1.60;;;;;;;;;;5047134;28;39570;-78
2021/08/08 16:44:13;;;;;;;5.60;1.25;;;;;;;;;;5048817;28;37087;-79
2021/08/08 16:46:41;;;;;;;5.78;1.85;;;;;;;;;;5047997;28;38777;-79
2021/08/08 16:49:08;;;;;;;5.93;1.27;;;;;;;;;;5049388;28;38729;-78
2021/08/08 16:51:34;;;;;;;7.63;1.73;;;;;;;;;;5048318;28;38853;-78
2021/08/08 16:54:00;;;;;;;5.63;1.92;;;;;;;;;;5051091;28;38620;-79
2021/08/08 16:56:27;;;;;;;8.25;2.55;;;;;;;;;;5032088;28;41066;-79
2021/08/08 16:58:53;;;;;;;9.38;2.35;;;;;;;;;;5035700;28;39321;-79
2021/08/08 17:01:20;;;;;;;6.70;2.05;;;;;;;;;;5033002;28;40079;-79
2021/08/08 17:03:46;;;;;;;7.57;2.03;;;;;;;;;;5054319;28;37879;-79
2021/08/08 17:06:12;;;;;;;9.35;2.03;;;;;;;;;;5033615;28;37737;-79
2021/08/08 17:08:39;;;;;;;8.40;2.72;;;;;;;;;;5055187;28;38552;-79
2021/08/08 17:11:06;;;;;;;9.07;2.92;;;;;;;;;;5035866;28;38961;-79
2021/08/08 17:13:32;;;;;;;8.80;2.33;;;;;;;;;;5053946;28;37171;-79
2021/08/08 17:15:58;;;;;;;12.48;2.53;;;;;;;;;;5052090;28;39770;-78
2021/08/08 17:18:25;;;;;;;11.57;2.72;;;;;;;;;;5051058;28;40166;-79
2021/08/08 17:20:51;;;;;;;12.95;2.40;;;;;;;;;;5051074;28;37324;-80
2021/08/08 17:23:19;;;;;;;11.48;2.47;;;;;;;;;;5050912;28;36963;-80
2021/08/08 17:25:45;;;;;;;12.40;2.60;;;;;;;;;;5051143;28;39798;-79
2021/08/08 17:28:12;;;;;;;10.30;2.28;;;;;;;;;;5051798;28;39566;-79
2021/08/08 17:30:38;;;;;;;8.65;2.88;;;;;;;;;;5033142;28;39257;-80
2021/08/08 17:33:05;;;;;;;11.45;2.78;;;;;;;;;;5033791;28;37904;-80
2021/08/08 17:35:31;;;;;;;8.75;2.10;;;;;;;;;;5032877;28;39826;-78
2021/08/08 17:37:58;;;;;;;7.60;2.65;;;;;;;;;;5052344;28;38565;-79
2021/08/08 17:40:24;;;;;;;8.88;2.20;;;;;;;;;;5032408;28;39905;-79
2021/08/08 17:42:51;;;;;;;8.93;2.42;;;;;;;;;;5051637;28;36601;-79
2021/08/08 17:45:17;;;;;;;9.13;2.08;;;;;;;;;;5051150;28;40503;-79
2021/08/08 17:47:43;;;;;;;8.07;2.33;;;;;;;;;;5051792;28;39050;-79
2021/08/08 17:50:12;;;;;;;8.68;2.15;;;;;;;;;;5050103;28;38245;-79
2021/08/08 17:52:38;;;;;;;9.55;2.28;;;;;;;;;;5034606;28;37392;-79
2021/08/08 17:55:05;;;;;;;10.30;2.70;;;;;;;;;;5033071;28;39086;-79
2021/08/08 17:57:31;;;;;;;8.50;2.47;;;;;;;;;;5032486;28;47116;-80
2021/08/08 17:59:57;;;;;;;11.57;2.97;;;;;;;;;;5033628;28;39869;-79
2021/08/08 18:02:24;;;;;;;10.65;2.60;;;;;;;;;;5031309;28;37385;-79
2021/08/08 18:04:50;;;;;;;10.30;2.30;;;;;;;;;;5032257;28;39861;-79
2021/08/08 18:07:17;;;;;;;9.70;2.50;;;;;;;;;;5050178;28;39914;-79